createdAt,value
2023-02-24T00:02:22.850Z,8.30
2023-02-24T00:04:50.913Z,8.46
2023-02-24T00:07:17.890Z,8.48
2023-02-24T00:09:44.672Z,8.08
2023-02-24T00:12:14.724Z,7.58
2023-02-24T00:14:44.149Z,7.32
2023-02-24T00:17:13.600Z,7.40
2023-02-24T00:19:40.051Z,7.33
2023-02-24T00:22:07.900Z,7.55
2023-02-24T00:24:35.187Z,7.49
2023-02-24T00:27:06.790Z,7.69
2023-02-24T00:29:36.740Z,7.55
2023-02-24T00:32:11.557Z,7.46
2023-02-24T00:34:38.127Z,7.54
2023-02-24T00:37:06.200Z,7.74
2023-02-24T00:39:33.814Z,7.79
2023-02-24T00:42:04.088Z,7.40
2023-02-24T00:44:32.377Z,7.00
2023-02-24T00:47:01.136Z,7.09
2023-02-24T00:49:28.483Z,7.24
2023-02-24T00:51:56.805Z,7.17
2023-02-24T00:54:26.681Z,7.32
2023-02-24T00:56:53.536Z,7.76
2023-02-24T00:59:23.072Z,8.00
2023-02-24T01:01:50.483Z,8.05
2023-02-24T01:04:18.934Z,7.96
2023-02-24T01:06:48.285Z,7.82
2023-02-24T01:09:18.794Z,7.59
2023-02-24T01:12:05.806Z,7.79
2023-02-24T01:14:33.809Z,7.59
2023-02-24T01:17:01.163Z,7.61
2023-02-24T01:19:30.939Z,7.48
2023-02-24T01:22:09.266Z,7.52
2023-02-24T01:24:41.080Z,7.62
2023-02-24T01:27:09.047Z,7.78
2023-02-24T01:29:38.798Z,7.59
2023-02-24T01:32:07.389Z,7.04
2023-02-24T01:34:34.652Z,6.55
2023-02-24T01:37:01.183Z,6.53
2023-02-24T01:39:27.783Z,6.85
2023-02-24T01:41:54.210Z,7.25
2023-02-24T01:44:58.751Z,7.22
2023-02-24T01:47:30.574Z,6.94
2023-02-24T01:49:57.820Z,6.73
2023-02-24T01:52:29.780Z,6.44
2023-02-24T01:55:02.305Z,6.51
2023-02-24T01:57:32.523Z,6.94
2023-02-24T02:00:16.067Z,6.76
2023-02-24T02:02:46.773Z,7.03
2023-02-24T02:05:14.262Z,7.02
2023-02-24T02:07:42.671Z,6.94
2023-02-24T02:10:10.757Z,7.06
2023-02-24T02:12:43.378Z,7.15
2023-02-24T02:15:12.664Z,7.11
2023-02-24T02:17:50.849Z,6.86
2023-02-24T02:20:41.592Z,6.99
2023-02-24T02:23:54.571Z,6.84
2023-02-24T02:26:40.390Z,6.76
2023-02-24T02:29:44.725Z,6.83
2023-02-24T02:32:51.205Z,6.80
2023-02-24T02:35:22.991Z,6.91
2023-02-24T02:37:55.502Z,6.95
2023-02-24T02:40:28.036Z,6.95
2023-02-24T02:42:59.399Z,7.05
2023-02-24T02:45:32.165Z,7.05
2023-02-24T02:48:05.950Z,7.23
2023-02-24T02:50:42.495Z,7.06
2023-02-24T02:53:14.017Z,7.00
2023-02-24T02:55:45.596Z,6.87
2023-02-24T02:58:17.298Z,6.72
2023-02-24T03:00:58.053Z,6.68
2023-02-24T03:03:27.201Z,6.61
2023-02-24T03:06:03.275Z,6.44
2023-02-24T03:08:36.396Z,6.55
2023-02-24T03:11:05.531Z,6.47
2023-02-24T03:13:36.911Z,6.60
2023-02-24T03:16:05.743Z,6.81
2023-02-24T03:18:35.503Z,6.68
2023-02-24T03:21:07.151Z,6.66
2023-02-24T03:23:37.338Z,6.71
2023-02-24T03:26:16.310Z,6.65
2023-02-24T03:28:53.001Z,6.84
2023-02-24T03:31:27.265Z,6.55
2023-02-24T03:34:00.093Z,5.73
2023-02-24T03:36:28.415Z,5.89
2023-02-24T03:38:57.548Z,5.89
2023-02-24T03:41:29.705Z,5.64
2023-02-24T03:43:58.180Z,6.15
2023-02-24T03:46:25.697Z,6.30
2023-02-24T03:48:58.999Z,6.33
2023-02-24T03:51:25.813Z,6.28
2023-02-24T03:54:10.317Z,6.34
2023-02-24T03:56:46.400Z,6.62
2023-02-24T03:59:27.249Z,7.02
2023-02-24T04:02:01.931Z,7.00
2023-02-24T04:04:42.087Z,6.85
2023-02-24T04:07:25.695Z,6.83
2023-02-24T04:10:02.224Z,6.63
2023-02-24T04:12:32.221Z,6.47
2023-02-24T04:15:10.021Z,6.53
2023-02-24T04:17:41.504Z,6.18
2023-02-24T04:20:15.019Z,6.16
2023-02-24T04:22:49.010Z,6.25
2023-02-24T04:25:23.698Z,6.42
2023-02-24T04:27:52.983Z,6.68
2023-02-24T04:30:20.019Z,6.79
2023-02-24T04:32:46.668Z,6.87
2023-02-24T04:35:16.413Z,6.50
2023-02-24T04:37:47.272Z,6.15
2023-02-24T04:40:21.237Z,6.37
2023-02-24T04:42:48.417Z,6.48
2023-02-24T04:45:16.818Z,6.53
2023-02-24T04:47:48.628Z,6.36
2023-02-24T04:50:22.079Z,6.49
2023-02-24T04:52:50.248Z,6.40
2023-02-24T04:55:16.965Z,6.14
2023-02-24T04:57:45.275Z,5.84
2023-02-24T05:00:20.137Z,5.83
2023-02-24T05:02:47.599Z,5.34
2023-02-24T05:05:14.545Z,5.59
2023-02-24T05:07:40.978Z,5.63
2023-02-24T05:10:07.997Z,5.88
2023-02-24T05:12:34.368Z,6.19
2023-02-24T05:15:01.507Z,6.35
2023-02-24T05:17:28.568Z,6.44
2023-02-24T05:20:13.219Z,6.21
2023-02-24T05:22:39.672Z,6.02
2023-02-24T05:25:07.476Z,5.94
2023-02-24T05:27:38.190Z,5.67
2023-02-24T05:30:09.009Z,5.56
2023-02-24T05:32:35.689Z,5.60
2023-02-24T05:35:02.507Z,5.51
2023-02-24T05:37:29.343Z,5.64
2023-02-24T05:39:55.886Z,5.83
2023-02-24T05:42:22.341Z,5.87
2023-02-24T05:44:49.138Z,5.83
2023-02-24T05:47:18.951Z,6.13
2023-02-24T05:49:47.255Z,6.44
2023-02-24T05:52:13.945Z,6.43
2023-02-24T05:54:43.285Z,6.69
2023-02-24T05:57:11.662Z,6.78
2023-02-24T05:59:38.606Z,6.84
2023-02-24T06:02:08.456Z,6.47
2023-02-24T06:04:39.675Z,6.55
2023-02-24T06:07:12.772Z,6.73
2023-02-24T06:09:42.148Z,7.19
2023-02-24T06:12:08.723Z,7.40
2023-02-24T06:14:35.202Z,7.30
2023-02-24T06:17:02.393Z,7.19
2023-02-24T06:19:31.226Z,7.11
2023-02-24T06:22:00.831Z,7.11
2023-02-24T06:24:28.478Z,7.20
2023-02-24T06:27:01.712Z,6.80
2023-02-24T06:29:30.147Z,6.46
2023-02-24T06:31:57.332Z,6.77
2023-02-24T06:34:25.509Z,6.84
2023-02-24T06:36:52.032Z,6.76
2023-02-24T06:39:19.137Z,6.80
2023-02-24T06:41:48.592Z,6.70
2023-02-24T06:44:15.016Z,6.94
2023-02-24T06:46:41.487Z,6.84
2023-02-24T06:49:09.193Z,6.90
2023-02-24T06:51:36.195Z,7.43
2023-02-24T06:54:02.584Z,8.83
2023-02-24T06:56:32.029Z,8.81
2023-02-24T06:58:58.800Z,8.44
2023-02-24T07:01:28.292Z,9.08
2023-02-24T07:04:16.916Z,9.42
2023-02-24T07:06:47.009Z,7.87
2023-02-24T07:09:15.828Z,6.93
2023-02-24T07:11:46.828Z,6.12
2023-02-24T07:14:13.887Z,5.65
2023-02-24T07:16:44.488Z,5.45
2023-02-24T07:19:13.385Z,5.37
2023-02-24T07:21:42.688Z,5.41
2023-02-24T07:24:12.658Z,5.36
2023-02-24T07:26:41.428Z,5.49
2023-02-24T07:29:10.617Z,5.60
2023-02-24T07:31:37.798Z,5.74
2023-02-24T07:34:05.653Z,5.87
2023-02-24T07:36:38.097Z,5.97
2023-02-24T07:39:08.443Z,5.87
2023-02-24T07:41:36.322Z,6.12
2023-02-24T07:44:02.782Z,6.45
2023-02-24T07:46:30.149Z,6.58
2023-02-24T07:48:58.432Z,6.60
2023-02-24T07:51:27.085Z,6.80
2023-02-24T07:53:58.173Z,6.81
2023-02-24T07:56:26.580Z,6.80
2023-02-24T07:58:58.473Z,6.83
2023-02-24T08:01:27.417Z,6.92
2023-02-24T08:03:56.894Z,7.01
2023-02-24T08:06:30.870Z,7.09
2023-02-24T08:09:15.907Z,7.17
2023-02-24T08:11:45.268Z,7.36
2023-02-24T08:14:13.342Z,7.54
2023-02-24T08:16:40.593Z,7.63
2023-02-24T08:19:12.335Z,7.81
2023-02-24T08:21:40.668Z,7.83
2023-02-24T08:24:16.824Z,7.76
2023-02-24T08:26:44.605Z,7.91
2023-02-24T08:29:12.250Z,7.87
2023-02-24T08:31:38.918Z,7.79
2023-02-24T08:34:05.432Z,7.84
2023-02-24T08:36:32.613Z,7.93
2023-02-24T08:38:59.035Z,7.90
2023-02-24T08:41:44.051Z,7.97
2023-02-24T08:44:12.921Z,8.09
2023-02-24T08:46:40.055Z,8.11
2023-02-24T08:49:10.071Z,8.09
2023-02-24T08:51:43.021Z,8.00
2023-02-24T08:54:14.577Z,8.01
2023-02-24T08:56:48.364Z,8.18
2023-02-24T08:59:37.096Z,8.28
2023-02-24T09:02:17.906Z,8.26
2023-02-24T09:04:45.159Z,8.51
2023-02-24T09:07:17.196Z,8.50
2023-02-24T09:09:44.662Z,8.32
2023-02-24T09:12:21.009Z,8.39
2023-02-24T09:14:49.101Z,8.71
2023-02-24T09:17:19.835Z,8.84
2023-02-24T09:20:06.709Z,9.17
2023-02-24T09:22:56.475Z,9.22
2023-02-24T09:25:25.075Z,9.05
2023-02-24T09:27:55.186Z,9.01
2023-02-24T09:30:35.237Z,9.00
2023-02-24T09:33:06.440Z,9.04
2023-02-24T09:35:36.078Z,9.07
2023-02-24T09:38:05.169Z,9.01
2023-02-24T09:40:39.673Z,9.22
2023-02-24T09:43:16.875Z,9.26
2023-02-24T09:45:52.657Z,9.10
2023-02-24T09:48:29.841Z,9.02
2023-02-24T09:51:05.517Z,8.81
2023-02-24T09:53:41.090Z,8.87
2023-02-24T09:56:21.279Z,9.04
2023-02-24T09:58:54.962Z,9.00
2023-02-24T10:05:07.835Z,8.96
2023-02-24T10:07:38.581Z,9.22
2023-02-24T10:10:22.280Z,9.42
2023-02-24T10:13:00.394Z,9.74
2023-02-24T10:15:50.205Z,9.70
2023-02-24T10:18:28.171Z,9.91
2023-02-24T10:21:02.201Z,9.73
2023-02-24T10:23:44.310Z,9.74
2023-02-24T10:26:30.846Z,9.55
2023-02-24T10:29:08.242Z,9.95
2023-02-24T10:31:45.504Z,10.29
2023-02-24T10:34:19.234Z,10.43
2023-02-24T10:36:49.558Z,10.60
2023-02-24T10:39:19.699Z,10.72
2023-02-24T10:41:48.437Z,10.67
2023-02-24T10:44:23.347Z,11.02
2023-02-24T10:47:10.548Z,10.87
2023-02-24T10:49:44.113Z,11.07
2023-02-24T10:52:32.561Z,11.15
2023-02-24T10:55:07.729Z,10.99
2023-02-24T10:57:58.125Z,11.04
2023-02-24T11:00:50.672Z,11.06
2023-02-24T11:03:34.948Z,11.21
2023-02-24T11:06:19.529Z,11.46
2023-02-24T11:09:20.010Z,11.43
2023-02-24T11:12:05.896Z,11.26
2023-02-24T11:14:57.702Z,11.57
2023-02-24T11:17:26.152Z,11.49
2023-02-24T11:20:03.354Z,11.64
2023-02-24T11:22:33.718Z,11.26
2023-02-24T11:25:06.615Z,11.32
2023-02-24T11:27:33.540Z,11.26
2023-02-24T11:30:21.469Z,11.30
2023-02-24T11:33:11.467Z,11.59
2023-02-24T11:35:44.484Z,11.44
2023-02-24T11:38:27.059Z,11.32
2023-02-24T11:41:02.268Z,11.16
2023-02-24T11:43:31.804Z,10.98
2023-02-24T11:46:04.862Z,10.92
2023-02-24T11:48:37.036Z,10.82
2023-02-24T11:51:06.854Z,11.03
2023-02-24T11:53:36.408Z,10.90
2023-02-24T11:56:09.509Z,10.86
2023-02-24T11:58:43.516Z,10.78
2023-02-24T12:01:16.363Z,10.68
2023-02-24T12:03:54.742Z,10.58
2023-02-24T12:06:29.940Z,10.65
2023-02-24T12:09:01.346Z,10.73
2023-02-24T12:11:38.079Z,10.60
2023-02-24T12:14:18.716Z,10.63
2023-02-24T12:16:52.568Z,10.78
2023-02-24T12:19:27.178Z,10.74
2023-02-24T12:22:04.832Z,10.78
2023-02-24T12:24:35.085Z,10.72
2023-02-24T12:27:10.474Z,10.74
2023-02-24T12:30:05.632Z,10.71
2023-02-24T12:32:52.137Z,10.81
2023-02-24T12:35:31.248Z,10.83
2023-02-24T12:38:10.118Z,10.82
2023-02-24T12:40:45.102Z,10.65
2023-02-24T12:43:25.357Z,10.61
2023-02-24T12:45:58.945Z,10.83
2023-02-24T12:48:47.033Z,10.85
2023-02-24T12:51:25.692Z,10.81
2023-02-24T12:53:59.194Z,10.51
2023-02-24T12:56:37.788Z,10.50
2023-02-24T12:59:09.415Z,10.72
2023-02-24T13:01:45.765Z,10.71
2023-02-24T13:04:28.795Z,10.70
2023-02-24T13:07:09.073Z,10.97
2023-02-24T13:09:44.646Z,10.97
2023-02-24T13:12:20.622Z,10.81
2023-02-24T13:14:47.866Z,10.82
2023-02-24T13:17:21.557Z,10.91
2023-02-24T13:19:51.816Z,10.93
2023-02-24T13:22:27.750Z,10.96
2023-02-24T13:25:18.355Z,10.92
2023-02-24T13:27:55.678Z,10.85
2023-02-24T13:30:27.125Z,10.86
2023-02-24T13:33:02.737Z,10.73
2023-02-24T13:35:32.832Z,10.49
2023-02-24T13:38:10.476Z,10.62
2023-02-24T13:40:37.360Z,10.61
2023-02-24T13:43:04.340Z,10.62
2023-02-24T13:45:31.630Z,10.63
2023-02-24T13:48:20.223Z,10.54
2023-02-24T13:51:07.442Z,10.56
2023-02-24T13:53:50.155Z,10.41
2023-02-24T13:56:29.130Z,10.36
2023-02-24T13:59:11.323Z,10.20
2023-02-24T14:01:47.585Z,10.01
2023-02-24T14:04:17.248Z,9.81
2023-02-24T14:06:49.583Z,9.71
2023-02-24T14:09:21.926Z,9.63
2023-02-24T14:11:51.330Z,9.64
2023-02-24T14:14:18.620Z,9.70
2023-02-24T14:16:50.013Z,9.69
2023-02-24T14:19:18.151Z,9.78
2023-02-24T14:21:51.242Z,9.81
2023-02-24T14:24:18.398Z,9.77
2023-02-24T14:26:47.283Z,9.82
2023-02-24T14:29:17.527Z,9.79
2023-02-24T14:31:47.635Z,9.73
2023-02-24T14:34:19.840Z,9.60
2023-02-24T14:36:47.997Z,9.59
2023-02-24T14:39:16.835Z,9.44
2023-02-24T14:41:44.572Z,9.71
2023-02-24T14:44:23.169Z,9.59
2023-02-24T14:46:51.707Z,9.40
2023-02-24T14:49:21.569Z,9.32
2023-02-24T14:51:54.160Z,9.07
2023-02-24T14:54:32.395Z,8.95
2023-02-24T14:56:59.955Z,8.73
2023-02-24T14:59:31.516Z,8.65
2023-02-24T15:01:58.906Z,8.68
2023-02-24T15:04:33.168Z,8.61
2023-02-24T15:07:01.280Z,8.56
2023-02-24T15:09:33.992Z,8.71
2023-02-24T15:12:08.918Z,8.67
2023-02-24T15:14:35.389Z,9.02
2023-02-24T15:17:07.797Z,9.02
2023-02-24T15:19:36.580Z,8.94
2023-02-24T15:22:03.465Z,8.94
2023-02-24T15:24:32.472Z,8.84
2023-02-24T15:27:01.413Z,8.81
2023-02-24T15:29:30.070Z,8.76
2023-02-24T15:31:58.256Z,8.66
2023-02-24T15:34:28.232Z,8.75
2023-02-24T15:37:00.513Z,8.80
2023-02-24T15:39:30.504Z,8.79
2023-02-24T15:42:08.279Z,8.82
2023-02-24T15:44:36.066Z,8.66
2023-02-24T15:47:20.065Z,8.60
2023-02-24T15:49:46.465Z,8.73
2023-02-24T15:52:12.922Z,9.00
2023-02-24T15:54:41.629Z,9.00
2023-02-24T15:57:11.937Z,9.50
2023-02-24T15:59:39.755Z,9.24
2023-02-24T16:02:12.613Z,8.87
2023-02-24T16:04:39.058Z,8.78
2023-02-24T16:07:09.537Z,8.57
2023-02-24T16:09:39.974Z,8.40
2023-02-24T16:12:12.820Z,8.38
2023-02-24T16:14:40.342Z,8.32
2023-02-24T16:17:09.379Z,8.39
2023-02-24T16:19:37.180Z,8.44
2023-02-24T16:22:03.803Z,8.50
2023-02-24T16:24:30.374Z,8.41
2023-02-24T16:26:56.836Z,8.40
2023-02-24T16:29:24.027Z,8.59
2023-02-24T16:31:50.716Z,8.58
2023-02-24T16:34:17.404Z,8.63
2023-02-24T16:36:43.851Z,8.67
2023-02-24T16:39:13.136Z,8.53
2023-02-24T16:41:39.659Z,8.43
2023-02-24T16:44:06.122Z,8.35
2023-02-24T16:46:36.875Z,8.41
2023-02-24T16:49:07.822Z,8.18
2023-02-24T16:51:34.611Z,8.04
2023-02-24T16:54:01.626Z,7.91
2023-02-24T16:56:28.060Z,7.79
2023-02-24T16:58:54.442Z,7.74
2023-02-24T17:01:21.209Z,7.67
2023-02-24T17:03:50.972Z,7.66
2023-02-24T17:06:17.571Z,7.64
2023-02-24T17:08:45.580Z,7.56
2023-02-24T17:11:14.330Z,7.43
2023-02-24T17:13:41.215Z,7.44
2023-02-24T17:16:07.732Z,7.52
2023-02-24T17:18:34.119Z,7.35
2023-02-24T17:21:01.677Z,7.09
2023-02-24T17:23:28.169Z,7.08
2023-02-24T17:25:58.112Z,7.04
2023-02-24T17:28:26.185Z,7.07
2023-02-24T17:30:52.866Z,7.04
2023-02-24T17:33:19.568Z,6.94
2023-02-24T17:35:47.890Z,7.04
2023-02-24T17:38:16.221Z,7.07
2023-02-24T17:40:43.629Z,7.10
2023-02-24T17:43:10.094Z,6.97
2023-02-24T17:45:41.945Z,6.94
2023-02-24T17:48:08.405Z,6.83
2023-02-24T17:50:34.841Z,6.79
2023-02-24T17:53:01.316Z,6.81
2023-02-24T17:55:28.381Z,6.77
2023-02-24T17:57:57.106Z,6.75
2023-02-24T18:00:26.036Z,6.76
2023-02-24T18:02:52.727Z,6.72
2023-02-24T18:05:19.258Z,6.70
2023-02-24T18:07:45.700Z,6.71
2023-02-24T18:10:13.029Z,6.64
2023-02-24T18:12:40.107Z,6.77
2023-02-24T18:15:11.117Z,6.78
2023-02-24T18:17:37.921Z,6.84
2023-02-24T18:20:05.334Z,6.89
2023-02-24T18:22:31.746Z,6.89
2023-02-24T18:24:58.734Z,6.90
2023-02-24T18:27:25.152Z,6.88
2023-02-24T18:29:52.952Z,6.91
2023-02-24T18:32:19.888Z,6.90
2023-02-24T18:34:46.582Z,6.91
2023-02-24T18:37:13.998Z,6.70
2023-02-24T18:39:40.547Z,6.87
2023-02-24T18:42:07.044Z,6.94
2023-02-24T18:44:33.454Z,6.95
2023-02-24T18:47:00.569Z,6.94
2023-02-24T18:49:27.121Z,6.98
2023-02-24T18:51:53.510Z,7.01
2023-02-24T18:54:20.011Z,7.02
2023-02-24T18:56:46.427Z,7.04
2023-02-24T18:59:12.800Z,7.04
2023-02-24T19:01:39.875Z,7.09
2023-02-24T19:04:08.029Z,7.14
2023-02-24T19:06:35.524Z,7.07
2023-02-24T19:09:05.444Z,7.17
2023-02-24T19:11:32.590Z,7.21
2023-02-24T19:13:59.970Z,7.21
2023-02-24T19:16:26.777Z,7.19
2023-02-24T19:18:55.675Z,7.18
2023-02-24T19:21:23.536Z,7.23
2023-02-24T19:23:50.362Z,7.31
2023-02-24T19:26:18.691Z,7.32
2023-02-24T19:28:45.123Z,7.36
2023-02-24T19:31:13.649Z,7.39
2023-02-24T19:33:40.159Z,7.31
2023-02-24T19:36:07.309Z,7.38
2023-02-24T19:38:34.400Z,7.37
2023-02-24T19:41:01.239Z,7.08
2023-02-24T19:43:27.798Z,7.01
2023-02-24T19:45:54.237Z,6.92
2023-02-24T19:48:20.670Z,6.83
2023-02-24T19:50:47.127Z,6.76
2023-02-24T19:53:13.738Z,6.76
2023-02-24T19:55:40.960Z,6.79
2023-02-24T19:58:07.340Z,6.72
2023-02-24T20:00:33.774Z,6.76
2023-02-24T20:03:00.225Z,6.69
2023-02-24T20:05:26.628Z,6.69
2023-02-24T20:07:55.190Z,6.70
2023-02-24T20:10:21.857Z,6.67
2023-02-24T20:12:49.004Z,6.68
2023-02-24T20:15:15.516Z,6.67
2023-02-24T20:17:44.513Z,6.70
2023-02-24T20:20:12.332Z,6.60
2023-02-24T20:22:38.817Z,6.56
2023-02-24T20:25:06.991Z,6.59
2023-02-24T20:27:33.480Z,6.57
2023-02-24T20:30:01.425Z,6.60
2023-02-24T20:32:28.062Z,6.61
2023-02-24T20:34:54.564Z,6.64
2023-02-24T20:37:21.497Z,6.72
2023-02-24T20:39:47.974Z,6.74
2023-02-24T20:42:14.471Z,6.76
2023-02-24T20:44:40.962Z,6.70
2023-02-24T20:47:10.651Z,6.68
2023-02-24T20:49:38.532Z,6.70
2023-02-24T20:52:05.230Z,6.72
2023-02-24T20:54:31.741Z,6.62
2023-02-24T20:56:59.474Z,6.66
2023-02-24T20:59:25.950Z,6.63
2023-02-24T21:01:52.373Z,6.46
2023-02-24T21:04:21.565Z,6.58
2023-02-24T21:06:53.280Z,6.47
2023-02-24T21:09:19.866Z,6.11
2023-02-24T21:11:49.493Z,6.01
2023-02-24T21:14:16.533Z,5.88
2023-02-24T21:16:45.232Z,5.81
2023-02-24T21:19:11.768Z,5.76
2023-02-24T21:21:39.186Z,5.68
2023-02-24T21:24:06.542Z,5.61
2023-02-24T21:26:34.269Z,5.54
2023-02-24T21:29:00.682Z,5.54
2023-02-24T21:31:29.374Z,5.41
2023-02-24T21:33:55.926Z,5.33
2023-02-24T21:36:27.239Z,5.12
2023-02-24T21:38:54.744Z,4.88
2023-02-24T21:41:25.157Z,4.78
2023-02-24T21:43:55.602Z,4.75
2023-02-24T21:46:25.237Z,4.66
2023-02-24T21:48:54.010Z,4.60
2023-02-24T21:51:24.739Z,4.58
2023-02-24T21:53:54.254Z,4.48
2023-02-24T21:56:24.111Z,4.39
2023-02-24T21:58:53.231Z,4.18
2023-02-24T22:01:25.076Z,4.28
2023-02-24T22:03:52.776Z,4.20
2023-02-24T22:06:19.463Z,4.19
2023-02-24T22:08:46.125Z,4.15
2023-02-24T22:11:15.198Z,4.22
2023-02-24T22:13:43.568Z,4.04
2023-02-24T22:16:22.560Z,3.84
2023-02-24T22:18:52.477Z,3.76
2023-02-24T22:21:21.297Z,3.71
2023-02-24T22:23:50.172Z,3.66
2023-02-24T22:26:17.170Z,3.52
2023-02-24T22:28:46.346Z,3.34
2023-02-24T22:31:15.938Z,3.12
2023-02-24T22:33:43.537Z,2.95
2023-02-24T22:36:12.393Z,2.93
2023-02-24T22:38:39.508Z,2.95
2023-02-24T22:41:08.421Z,2.85
2023-02-24T22:43:35.016Z,3.09
2023-02-24T22:46:04.324Z,3.06
2023-02-24T22:48:31.567Z,3.41
2023-02-24T22:51:00.492Z,3.26
2023-02-24T22:53:28.507Z,3.27
2023-02-24T22:55:56.090Z,3.46
2023-02-24T22:58:23.726Z,3.49
2023-02-24T23:00:51.899Z,3.79
2023-02-24T23:03:20.991Z,3.51
2023-02-24T23:05:54.570Z,3.32
2023-02-24T23:08:21.754Z,3.26
2023-02-24T23:10:48.149Z,3.19
2023-02-24T23:13:14.792Z,3.18
2023-02-24T23:15:41.216Z,3.09
2023-02-24T23:18:08.570Z,2.94
2023-02-24T23:20:35.824Z,2.91
2023-02-24T23:23:02.279Z,3.12
2023-02-24T23:25:29.326Z,2.99
2023-02-24T23:27:55.782Z,3.11
2023-02-24T23:30:22.454Z,2.92
2023-02-24T23:32:48.892Z,3.05
2023-02-24T23:35:15.549Z,2.86
2023-02-24T23:37:42.704Z,2.94
2023-02-24T23:40:10.597Z,2.89
2023-02-24T23:42:37.362Z,2.76
2023-02-24T23:45:04.649Z,2.66
2023-02-24T23:47:31.125Z,2.46
2023-02-24T23:49:58.199Z,2.39
2023-02-24T23:52:24.675Z,2.30
2023-02-24T23:54:52.168Z,2.21
2023-02-24T23:57:18.797Z,2.07
2023-02-24T23:59:45.297Z,2.03
